sensor_id;sensor_type;location;lat;lon;timestamp;pressure;altitude;pressure_sealevel;temperature;humidity
69955;BME280;57279;55.912;37.490;2023-02-03T00:01:52;98532.56;;;0.51;71.74
69955;BME280;57279;55.912;37.490;2023-02-03T00:04:17;98529.34;;;0.42;72.00
69955;BME280;57279;55.912;37.490;2023-02-03T00:06:43;98532.44;;;0.39;71.99
69955;BME280;57279;55.912;37.490;2023-02-03T00:09:09;98527.31;;;0.37;72.20
69955;BME280;57279;55.912;37.490;2023-02-03T00:11:35;98536.56;;;0.35;72.45
69955;BME280;57279;55.912;37.490;2023-02-03T00:14:01;98530.63;;;0.33;72.20
69955;BME280;57279;55.912;37.490;2023-02-03T00:16:27;98537.16;;;0.37;72.18
69955;BME280;57279;55.912;37.490;2023-02-03T00:18:52;98534.28;;;0.38;72.22
69955;BME280;57279;55.912;37.490;2023-02-03T00:21:18;98529.38;;;0.35;72.39
69955;BME280;57279;55.912;37.490;2023-02-03T00:23:44;98534.69;;;0.35;72.32
69955;BME280;57279;55.912;37.490;2023-02-03T00:26:13;98537.34;;;0.35;72.43
69955;BME280;57279;55.912;37.490;2023-02-03T00:28:40;98544.53;;;0.28;72.86
69955;BME280;57279;55.912;37.490;2023-02-03T00:31:14;98541.06;;;0.34;72.89
69955;BME280;57279;55.912;37.490;2023-02-03T00:33:40;98533.28;;;0.33;72.97
69955;BME280;57279;55.912;37.490;2023-02-03T00:36:06;98544.53;;;0.28;72.77
69955;BME280;57279;55.912;37.490;2023-02-03T00:38:31;98533.09;;;0.28;72.92
69955;BME280;57279;55.912;37.490;2023-02-03T00:40:57;98542.72;;;0.29;72.91
69955;BME280;57279;55.912;37.490;2023-02-03T00:43:23;98529.44;;;0.29;72.62
69955;BME280;57279;55.912;37.490;2023-02-03T00:45:48;98536.41;;;0.23;73.01
69955;BME280;57279;55.912;37.490;2023-02-03T00:48:14;98535.81;;;0.21;73.07
69955;BME280;57279;55.912;37.490;2023-02-03T00:50:48;98530.50;;;0.21;73.20
69955;BME280;57279;55.912;37.490;2023-02-03T00:53:13;98525.56;;;0.25;73.29
69955;BME280;57279;55.912;37.490;2023-02-03T00:55:41;98532.94;;;0.23;73.02
69955;BME280;57279;55.912;37.490;2023-02-03T00:58:07;98538.84;;;0.25;73.28
69955;BME280;57279;55.912;37.490;2023-02-03T01:00:33;98529.25;;;0.24;73.10
69955;BME280;57279;55.912;37.490;2023-02-03T01:02:58;98532.31;;;0.21;73.20
69955;BME280;57279;55.912;37.490;2023-02-03T01:05:24;98536.44;;;0.16;73.48
69955;BME280;57279;55.912;37.490;2023-02-03T01:07:50;98527.47;;;0.11;73.37
69955;BME280;57279;55.912;37.490;2023-02-03T01:10:16;98532.59;;;0.12;73.73
69955;BME280;57279;55.912;37.490;2023-02-03T01:12:41;98522.97;;;0.11;74.08
69955;BME280;57279;55.912;37.490;2023-02-03T01:15:07;98517.06;;;0.09;74.19
69955;BME280;57279;55.912;37.490;2023-02-03T01:17:33;98521.75;;;0.14;74.27
69955;BME280;57279;55.912;37.490;2023-02-03T01:19:58;98515.41;;;0.15;74.22
69955;BME280;57279;55.912;37.490;2023-02-03T01:22:24;98512.53;;;0.16;74.30
69955;BME280;57279;55.912;37.490;2023-02-03T01:24:50;98524.56;;;0.19;74.22
69955;BME280;57279;55.912;37.490;2023-02-03T01:27:15;98522.97;;;0.18;74.31
69955;BME280;57279;55.912;37.490;2023-02-03T01:29:41;98522.53;;;0.21;74.04
69955;BME280;57279;55.912;37.490;2023-02-03T01:32:07;98515.38;;;0.22;74.01
69955;BME280;57279;55.912;37.490;2023-02-03T01:34:34;98523.94;;;0.24;73.96
69955;BME280;57279;55.912;37.490;2023-02-03T01:36:59;98516.78;;;0.24;73.93
69955;BME280;57279;55.912;37.490;2023-02-03T01:39:27;98515.81;;;0.18;74.12
69955;BME280;57279;55.912;37.490;2023-02-03T01:41:54;98528.88;;;0.20;74.29
69955;BME280;57279;55.912;37.490;2023-02-03T01:50:08;98519.31;;;0.12;74.48
69955;BME280;57279;55.912;37.490;2023-02-03T01:52:40;98520.97;;;0.13;74.62
69955;BME280;57279;55.912;37.490;2023-02-03T01:55:09;98516.88;;;0.11;74.75
69955;BME280;57279;55.912;37.490;2023-02-03T01:57:40;98509.50;;;0.13;74.54
69955;BME280;57279;55.912;37.490;2023-02-03T02:00:07;98510.69;;;0.17;74.63
69955;BME280;57279;55.912;37.490;2023-02-03T02:02:41;98507.63;;;0.20;74.71
69955;BME280;57279;55.912;37.490;2023-02-03T02:07:55;98504.31;;;0.25;74.91
69955;BME280;57279;55.912;37.490;2023-02-03T02:10:22;98510.25;;;0.27;74.83
69955;BME280;57279;55.912;37.490;2023-02-03T02:12:48;98515.56;;;0.27;74.92
69955;BME280;57279;55.912;37.490;2023-02-03T02:15:14;98515.34;;;0.28;74.88
69955;BME280;57279;55.912;37.490;2023-02-03T02:20:37;98512.66;;;0.35;74.95
69955;BME280;57279;55.912;37.490;2023-02-03T02:25:57;98509.53;;;0.38;74.60
69955;BME280;57279;55.912;37.490;2023-02-03T02:31:54;98512.00;;;0.39;74.53
69955;BME280;57279;55.912;37.490;2023-02-03T02:37:29;98509.72;;;0.43;74.39
69955;BME280;57279;55.912;37.490;2023-02-03T02:40:36;98502.22;;;0.40;74.53
69955;BME280;57279;55.912;37.490;2023-02-03T02:50:44;98496.91;;;0.40;74.41
69955;BME280;57279;55.912;37.490;2023-02-03T02:53:12;98501.75;;;0.43;74.51
69955;BME280;57279;55.912;37.490;2023-02-03T02:55:42;98500.16;;;0.42;74.52
69955;BME280;57279;55.912;37.490;2023-02-03T02:58:11;98508.47;;;0.46;74.61
69955;BME280;57279;55.912;37.490;2023-02-03T03:00:39;98510.31;;;0.45;74.85
69955;BME280;57279;55.912;37.490;2023-02-03T03:03:11;98506.66;;;0.46;74.62
69955;BME280;57279;55.912;37.490;2023-02-03T03:05:39;98504.81;;;0.47;74.75
69955;BME280;57279;55.912;37.490;2023-02-03T03:08:08;98505.56;;;0.54;74.44
69955;BME280;57279;55.912;37.490;2023-02-03T03:10:36;98500.19;;;0.61;74.20
69955;BME280;57279;55.912;37.490;2023-02-03T03:13:08;98504.03;;;0.65;74.06
69955;BME280;57279;55.912;37.490;2023-02-03T03:15:36;98498.31;;;0.68;73.98
69955;BME280;57279;55.912;37.490;2023-02-03T03:18:35;98501.56;;;0.70;73.89
69955;BME280;57279;55.912;37.490;2023-02-03T03:21:04;98504.81;;;0.72;73.90
69955;BME280;57279;55.912;37.490;2023-02-03T03:23:35;98503.78;;;0.73;73.94
69955;BME280;57279;55.912;37.490;2023-02-03T03:28:56;98505.25;;;0.69;74.33
69955;BME280;57279;55.912;37.490;2023-02-03T03:31:24;98507.69;;;0.70;74.47
69955;BME280;57279;55.912;37.490;2023-02-03T03:33:52;98506.84;;;0.76;74.01
69955;BME280;57279;55.912;37.490;2023-02-03T03:36:31;98506.75;;;0.83;73.98
69955;BME280;57279;55.912;37.490;2023-02-03T03:39:12;98509.38;;;0.90;73.62
69955;BME280;57279;55.912;37.490;2023-02-03T03:41:56;98510.78;;;0.92;73.77
69955;BME280;57279;55.912;37.490;2023-02-03T03:44:28;98509.31;;;0.96;73.57
69955;BME280;57279;55.912;37.490;2023-02-03T03:47:03;98503.56;;;1.00;73.30
69955;BME280;57279;55.912;37.490;2023-02-03T03:49:33;98506.34;;;1.05;73.42
69955;BME280;57279;55.912;37.490;2023-02-03T03:52:03;98511.25;;;1.08;73.36
69955;BME280;57279;55.912;37.490;2023-02-03T03:54:30;98512.66;;;1.10;73.35
69955;BME280;57279;55.912;37.490;2023-02-03T03:56:57;98506.47;;;1.16;73.24
69955;BME280;57279;55.912;37.490;2023-02-03T03:59:27;98505.22;;;1.19;72.94
69955;BME280;57279;55.912;37.490;2023-02-03T04:01:54;98503.16;;;1.21;72.83
69955;BME280;57279;55.912;37.490;2023-02-03T04:04:20;98504.91;;;1.27;72.82
69955;BME280;57279;55.912;37.490;2023-02-03T04:06:47;98509.22;;;1.28;72.76
69955;BME280;57279;55.912;37.490;2023-02-03T04:09:13;98508.91;;;1.36;72.95
69955;BME280;57279;55.912;37.490;2023-02-03T04:11:39;98511.38;;;1.38;72.73
69955;BME280;57279;55.912;37.490;2023-02-03T04:14:22;98504.88;;;1.34;72.79
69955;BME280;57279;55.912;37.490;2023-02-03T04:16:48;98508.13;;;1.36;73.17
69955;BME280;57279;55.912;37.490;2023-02-03T04:19:14;98503.00;;;1.34;73.26
69955;BME280;57279;55.912;37.490;2023-02-03T04:21:39;98507.91;;;1.38;73.30
69955;BME280;57279;55.912;37.490;2023-02-03T04:24:05;98510.94;;;1.41;73.55
69955;BME280;57279;55.912;37.490;2023-02-03T04:26:31;98513.13;;;1.44;73.25
69955;BME280;57279;55.912;37.490;2023-02-03T04:28:57;98512.50;;;1.49;73.25
69955;BME280;57279;55.912;37.490;2023-02-03T04:31:22;98512.13;;;1.45;72.89
69955;BME280;57279;55.912;37.490;2023-02-03T04:33:49;98515.38;;;1.47;72.83
69955;BME280;57279;55.912;37.490;2023-02-03T04:36:15;98517.22;;;1.47;72.69
69955;BME280;57279;55.912;37.490;2023-02-03T04:38:40;98526.81;;;1.48;72.85
69955;BME280;57279;55.912;37.490;2023-02-03T04:41:06;98516.75;;;1.50;72.80
69955;BME280;57279;55.912;37.490;2023-02-03T04:43:31;98518.41;;;1.51;72.70
69955;BME280;57279;55.912;37.490;2023-02-03T04:46:00;98522.97;;;1.44;72.83
69955;BME280;57279;55.912;37.490;2023-02-03T04:48:26;98516.31;;;1.34;72.72
69955;BME280;57279;55.912;37.490;2023-02-03T04:50:52;98515.88;;;1.38;73.01
69955;BME280;57279;55.912;37.490;2023-02-03T04:53:17;98510.94;;;1.41;72.89
69955;BME280;57279;55.912;37.490;2023-02-03T04:55:46;98507.31;;;1.35;72.92
69955;BME280;57279;55.912;37.490;2023-02-03T04:58:13;98511.44;;;1.31;73.08
69955;BME280;57279;55.912;37.490;2023-02-03T05:00:38;98513.50;;;1.29;73.17
69955;BME280;57279;55.912;37.490;2023-02-03T05:03:04;98513.13;;;1.26;73.50
69955;BME280;57279;55.912;37.490;2023-02-03T05:05:30;98510.81;;;1.29;73.61
69955;BME280;57279;55.912;37.490;2023-02-03T05:07:55;98507.53;;;1.34;73.29
69955;BME280;57279;55.912;37.490;2023-02-03T05:10:21;98514.69;;;1.33;73.66
69955;BME280;57279;55.912;37.490;2023-02-03T05:12:47;98512.63;;;1.35;73.26
69955;BME280;57279;55.912;37.490;2023-02-03T05:15:12;98518.53;;;1.38;73.33
69955;BME280;57279;55.912;37.490;2023-02-03T05:17:38;98510.19;;;1.34;73.62
69955;BME280;57279;55.912;37.490;2023-02-03T05:20:05;98515.66;;;1.39;73.24
69955;BME280;57279;55.912;37.490;2023-02-03T05:22:31;98512.38;;;1.37;73.26
69955;BME280;57279;55.912;37.490;2023-02-03T05:24:56;98521.84;;;1.33;73.60
69955;BME280;57279;55.912;37.490;2023-02-03T05:27:22;98512.31;;;1.25;73.33
69955;BME280;57279;55.912;37.490;2023-02-03T05:29:48;98507.66;;;1.21;73.85
69955;BME280;57279;55.912;37.490;2023-02-03T05:32:13;98514.88;;;1.13;74.13
69955;BME280;57279;55.912;37.490;2023-02-03T05:34:39;98509.19;;;1.10;73.92
69955;BME280;57279;55.912;37.490;2023-02-03T05:37:04;98512.22;;;1.13;74.01
69955;BME280;57279;55.912;37.490;2023-02-03T05:39:30;98515.31;;;1.10;74.03
69955;BME280;57279;55.912;37.490;2023-02-03T05:41:55;98510.63;;;1.12;73.95
69955;BME280;57279;55.912;37.490;2023-02-03T05:44:26;98519.69;;;1.23;73.98
69955;BME280;57279;55.912;37.490;2023-02-03T05:46:53;98514.97;;;1.25;73.43
69955;BME280;57279;55.912;37.490;2023-02-03T05:49:20;98516.59;;;1.26;73.54
69955;BME280;57279;55.912;37.490;2023-02-03T05:51:48;98518.00;;;1.29;73.17
69955;BME280;57279;55.912;37.490;2023-02-03T05:54:14;98519.84;;;1.28;73.01
69955;BME280;57279;55.912;37.490;2023-02-03T05:56:39;98519.19;;;1.33;72.90
69955;BME280;57279;55.912;37.490;2023-02-03T05:59:05;98514.69;;;1.33;72.30
69955;BME280;57279;55.912;37.490;2023-02-03T06:01:31;98514.09;;;1.31;72.35
69955;BME280;57279;55.912;37.490;2023-02-03T06:03:58;98523.31;;;1.29;72.16
69955;BME280;57279;55.912;37.490;2023-02-03T06:06:24;98513.81;;;1.40;72.14
69955;BME280;57279;55.912;37.490;2023-02-03T06:08:49;98516.84;;;1.43;71.83
69955;BME280;57279;55.912;37.490;2023-02-03T06:11:21;98513.13;;;1.44;71.50
69955;BME280;57279;55.912;37.490;2023-02-03T06:13:49;98521.50;;;1.48;71.67
69955;BME280;57279;55.912;37.490;2023-02-03T06:16:15;98521.31;;;1.43;71.49
69955;BME280;57279;55.912;37.490;2023-02-03T06:18:41;98514.09;;;1.50;71.55
69955;BME280;57279;55.912;37.490;2023-02-03T06:21:07;98525.53;;;1.50;71.57
69955;BME280;57279;55.912;37.490;2023-02-03T06:23:32;98521.69;;;1.46;71.49
69955;BME280;57279;55.912;37.490;2023-02-03T06:25:58;98529.78;;;1.40;71.50
69955;BME280;57279;55.912;37.490;2023-02-03T06:28:26;98528.50;;;1.42;71.82
69955;BME280;57279;55.912;37.490;2023-02-03T06:30:52;98529.25;;;1.49;71.63
69955;BME280;57279;55.912;37.490;2023-02-03T06:33:20;98531.25;;;1.54;71.27
69955;BME280;57279;55.912;37.490;2023-02-03T06:35:46;98533.31;;;1.52;70.91
69955;BME280;57279;55.912;37.490;2023-02-03T06:38:12;98529.16;;;1.56;70.97
69955;BME280;57279;55.912;37.490;2023-02-03T06:40:38;98532.56;;;1.63;70.67
69955;BME280;57279;55.912;37.490;2023-02-03T06:43:04;98533.84;;;1.61;70.73
69955;BME280;57279;55.912;37.490;2023-02-03T06:45:29;98531.97;;;1.61;70.48
69955;BME280;57279;55.912;37.490;2023-02-03T06:47:55;98532.06;;;1.54;70.66
69955;BME280;57279;55.912;37.490;2023-02-03T06:50:20;98532.34;;;1.46;70.95
69955;BME280;57279;55.912;37.490;2023-02-03T06:52:48;98533.66;;;1.37;70.99
69955;BME280;57279;55.912;37.490;2023-02-03T06:55:13;98531.63;;;1.39;71.31
69955;BME280;57279;55.912;37.490;2023-02-03T06:57:46;98527.91;;;1.40;71.20
69955;BME280;57279;55.912;37.490;2023-02-03T07:00:14;98521.94;;;1.45;71.14
69955;BME280;57279;55.912;37.490;2023-02-03T07:02:40;98523.50;;;1.52;71.09
69955;BME280;57279;55.912;37.490;2023-02-03T07:05:06;98521.44;;;1.54;71.03
69955;BME280;57279;55.912;37.490;2023-02-03T07:07:31;98527.47;;;1.62;70.47
69955;BME280;57279;55.912;37.490;2023-02-03T07:09:59;98518.63;;;1.68;70.29
69955;BME280;57279;55.912;37.490;2023-02-03T07:12:25;98524.31;;;1.71;70.13
69955;BME280;57279;55.912;37.490;2023-02-03T07:14:50;98528.81;;;1.71;70.20
69955;BME280;57279;55.912;37.490;2023-02-03T07:17:16;98524.31;;;1.71;70.19
69955;BME280;57279;55.912;37.490;2023-02-03T07:19:42;98532.78;;;1.80;70.12
69955;BME280;57279;55.912;37.490;2023-02-03T07:22:09;98529.22;;;1.86;69.93
69955;BME280;57279;55.912;37.490;2023-02-03T07:24:35;98531.69;;;1.88;69.78
69955;BME280;57279;55.912;37.490;2023-02-03T07:27:01;98528.88;;;1.83;69.70
69955;BME280;57279;55.912;37.490;2023-02-03T07:29:27;98531.53;;;1.83;69.54
69955;BME280;57279;55.912;37.490;2023-02-03T07:31:52;98524.44;;;1.76;69.95
69955;BME280;57279;55.912;37.490;2023-02-03T07:34:18;98523.25;;;1.72;70.00
69955;BME280;57279;55.912;37.490;2023-02-03T07:36:44;98528.59;;;1.72;70.21
69955;BME280;57279;55.912;37.490;2023-02-03T07:39:09;98520.97;;;1.76;70.12
69955;BME280;57279;55.912;37.490;2023-02-03T07:41:35;98519.34;;;1.75;69.98
69955;BME280;57279;55.912;37.490;2023-02-03T07:44:00;98514.91;;;1.69;69.98
69955;BME280;57279;55.912;37.490;2023-02-03T07:46:26;98517.94;;;1.72;70.00
69955;BME280;57279;55.912;37.490;2023-02-03T07:48:52;98515.06;;;1.74;69.95
69955;BME280;57279;55.912;37.490;2023-02-03T07:51:17;98517.50;;;1.75;69.72
69955;BME280;57279;55.912;37.490;2023-02-03T07:53:44;98519.69;;;1.79;69.61
69955;BME280;57279;55.912;37.490;2023-02-03T07:56:09;98518.69;;;1.80;69.54
69955;BME280;57279;55.912;37.490;2023-02-03T07:58:36;98513.78;;;1.76;69.50
69955;BME280;57279;55.912;37.490;2023-02-03T08:01:10;98521.19;;;1.74;69.30
69955;BME280;57279;55.912;37.490;2023-02-03T08:03:36;98529.09;;;1.81;69.34
69955;BME280;57279;55.912;37.490;2023-02-03T08:06:01;98514.31;;;1.85;69.54
69955;BME280;57279;55.912;37.490;2023-02-03T08:08:27;98522.66;;;1.89;69.23
69955;BME280;57279;55.912;37.490;2023-02-03T08:10:56;98515.63;;;1.94;69.04
69955;BME280;57279;55.912;37.490;2023-02-03T08:13:22;98519.16;;;2.07;68.98
69955;BME280;57279;55.912;37.490;2023-02-03T08:15:47;98517.00;;;2.15;68.57
69955;BME280;57279;55.912;37.490;2023-02-03T08:18:13;98516.09;;;2.22;68.69
69955;BME280;57279;55.912;37.490;2023-02-03T08:20:39;98514.50;;;2.32;68.11
69955;BME280;57279;55.912;37.490;2023-02-03T08:23:05;98516.13;;;2.33;68.27
69955;BME280;57279;55.912;37.490;2023-02-03T08:25:31;98503.72;;;2.27;68.04
69955;BME280;57279;55.912;37.490;2023-02-03T08:27:57;98508.47;;;2.25;67.99
69955;BME280;57279;55.912;37.490;2023-02-03T08:30:23;98513.78;;;2.25;68.30
69955;BME280;57279;55.912;37.490;2023-02-03T08:32:49;98510.31;;;2.25;68.19
69955;BME280;57279;55.912;37.490;2023-02-03T08:35:15;98498.72;;;2.19;68.42
69955;BME280;57279;55.912;37.490;2023-02-03T08:37:41;98498.72;;;2.19;68.22
69955;BME280;57279;55.912;37.490;2023-02-03T08:40:07;98504.50;;;2.16;68.47
69955;BME280;57279;55.912;37.490;2023-02-03T08:42:33;98501.38;;;2.19;68.09
69955;BME280;57279;55.912;37.490;2023-02-03T08:44:59;98505.25;;;2.35;67.86
69955;BME280;57279;55.912;37.490;2023-02-03T08:47:25;98496.13;;;2.43;67.96
69955;BME280;57279;55.912;37.490;2023-02-03T08:49:51;98501.81;;;2.46;67.59
69955;BME280;57279;55.912;37.490;2023-02-03T08:52:17;98506.41;;;2.39;67.69
69955;BME280;57279;55.912;37.490;2023-02-03T08:54:43;98506.53;;;2.32;68.01
69955;BME280;57279;55.912;37.490;2023-02-03T08:57:08;98502.22;;;2.31;67.73
69955;BME280;57279;55.912;37.490;2023-02-03T08:59:36;98504.44;;;2.34;68.08
69955;BME280;57279;55.912;37.490;2023-02-03T09:02:05;98505.47;;;2.33;68.08
69955;BME280;57279;55.912;37.490;2023-02-03T09:04:31;98508.72;;;2.35;68.28
69955;BME280;57279;55.912;37.490;2023-02-03T09:06:59;98502.03;;;2.45;68.14
69955;BME280;57279;55.912;37.490;2023-02-03T09:09:25;98501.44;;;2.43;68.27
69955;BME280;57279;55.912;37.490;2023-02-03T09:11:52;98503.31;;;2.42;68.44
69955;BME280;57279;55.912;37.490;2023-02-03T09:14:19;98501.41;;;2.31;68.95
69955;BME280;57279;55.912;37.490;2023-02-03T09:16:45;98499.41;;;2.26;69.24
69955;BME280;57279;55.912;37.490;2023-02-03T09:19:10;98503.69;;;2.15;69.95
69955;BME280;57279;55.912;37.490;2023-02-03T09:21:37;98503.47;;;2.17;70.26
69955;BME280;57279;55.912;37.490;2023-02-03T09:24:03;98498.34;;;2.15;70.45
69955;BME280;57279;55.912;37.490;2023-02-03T09:26:29;98510.41;;;2.18;70.79
69955;BME280;57279;55.912;37.490;2023-02-03T09:28:55;98501.28;;;2.26;70.84
69955;BME280;57279;55.912;37.490;2023-02-03T09:31:20;98497.88;;;2.19;71.07
69955;BME280;57279;55.912;37.490;2023-02-03T09:33:46;98501.63;;;2.29;71.02
69955;BME280;57279;55.912;37.490;2023-02-03T09:36:12;98500.13;;;2.33;70.64
69955;BME280;57279;55.912;37.490;2023-02-03T09:38:38;98494.38;;;2.37;70.65
69955;BME280;57279;55.912;37.490;2023-02-03T09:43:47;98489.59;;;2.27;70.82
69955;BME280;57279;55.912;37.490;2023-02-03T09:46:29;98497.59;;;2.27;71.25
69955;BME280;57279;55.912;37.490;2023-02-03T09:49:02;98490.75;;;2.31;70.88
69955;BME280;57279;55.912;37.490;2023-02-03T09:51:35;98491.00;;;2.41;71.32
69955;BME280;57279;55.912;37.490;2023-02-03T09:54:53;98489.03;;;2.37;71.06
69955;BME280;57279;55.912;37.490;2023-02-03T09:57:24;98496.13;;;2.43;71.33
69955;BME280;57279;55.912;37.490;2023-02-03T09:59:51;98497.06;;;2.48;71.62
69955;BME280;57279;55.912;37.490;2023-02-03T10:02:23;98495.13;;;2.56;71.62
69955;BME280;57279;55.912;37.490;2023-02-03T10:07:39;98497.66;;;2.74;70.85
69955;BME280;57279;55.912;37.490;2023-02-03T10:10:32;98497.81;;;2.79;70.73
69955;BME280;57279;55.912;37.490;2023-02-03T10:16:13;98493.19;;;2.98;70.94
69955;BME280;57279;55.912;37.490;2023-02-03T10:18:45;98491.78;;;3.07;70.18
69955;BME280;57279;55.912;37.490;2023-02-03T10:21:31;98484.59;;;3.08;69.40
69955;BME280;57279;55.912;37.490;2023-02-03T10:23:59;98486.81;;;3.11;69.29
69955;BME280;57279;55.912;37.490;2023-02-03T10:26:27;98491.78;;;3.07;68.77
69955;BME280;57279;55.912;37.490;2023-02-03T10:28:55;98489.69;;;3.09;68.89
69955;BME280;57279;55.912;37.490;2023-02-03T10:31:23;98493.75;;;3.12;68.75
69955;BME280;57279;55.912;37.490;2023-02-03T10:34:08;98489.91;;;3.20;68.88
69955;BME280;57279;55.912;37.490;2023-02-03T10:36:51;98490.41;;;3.05;68.47
69955;BME280;57279;55.912;37.490;2023-02-03T10:41:49;98482.28;;;3.00;69.01
69955;BME280;57279;55.912;37.490;2023-02-03T10:44:15;98474.88;;;2.90;68.68
69955;BME280;57279;55.912;37.490;2023-02-03T10:46:41;98477.06;;;2.81;69.19
69955;BME280;57279;55.912;37.490;2023-02-03T10:49:09;98479.72;;;2.81;69.11
69955;BME280;57279;55.912;37.490;2023-02-03T10:51:36;98474.03;;;2.78;69.50
69955;BME280;57279;55.912;37.490;2023-02-03T10:54:03;98480.53;;;2.82;69.66
69955;BME280;57279;55.912;37.490;2023-02-03T10:56:34;98474.97;;;2.83;69.52
69955;BME280;57279;55.912;37.490;2023-02-03T10:59:01;98482.97;;;2.71;69.59
69955;BME280;57279;55.912;37.490;2023-02-03T11:01:41;98480.88;;;2.73;70.06
69955;BME280;57279;55.912;37.490;2023-02-03T11:04:24;98478.56;;;2.65;70.07
69955;BME280;57279;55.912;37.490;2023-02-03T11:07:01;98478.66;;;2.59;70.53
69955;BME280;57279;55.912;37.490;2023-02-03T11:09:39;98471.56;;;2.52;70.28
69955;BME280;57279;55.912;37.490;2023-02-03T11:12:09;98472.97;;;2.55;70.42
69955;BME280;57279;55.912;37.490;2023-02-03T11:14:38;98464.75;;;2.57;70.27
69955;BME280;57279;55.912;37.490;2023-02-03T11:17:07;98461.06;;;2.58;70.28
69955;BME280;57279;55.912;37.490;2023-02-03T11:19:36;98459.09;;;2.65;69.90
69955;BME280;57279;55.912;37.490;2023-02-03T11:22:02;98459.53;;;2.62;69.78
69955;BME280;57279;55.912;37.490;2023-02-03T11:24:31;98467.97;;;2.59;69.82
69955;BME280;57279;55.912;37.490;2023-02-03T11:27:13;98459.53;;;2.62;69.17
69955;BME280;57279;55.912;37.490;2023-02-03T11:30:12;98461.28;;;2.68;69.59
69955;BME280;57279;55.912;37.490;2023-02-03T11:32:41;98454.09;;;2.68;69.12
69955;BME280;57279;55.912;37.490;2023-02-03T11:35:17;98453.06;;;2.69;69.12
69955;BME280;57279;55.912;37.490;2023-02-03T11:37:48;98464.53;;;2.70;69.28
69955;BME280;57279;55.912;37.490;2023-02-03T11:42:45;98461.19;;;2.86;69.13
69955;BME280;57279;55.912;37.490;2023-02-03T11:45:52;98457.00;;;2.90;68.96
69955;BME280;57279;55.912;37.490;2023-02-03T11:48:42;98463.03;;;2.98;68.95
69955;BME280;57279;55.912;37.490;2023-02-03T11:51:28;98467.22;;;3.05;68.85
69955;BME280;57279;55.912;37.490;2023-02-03T11:57:50;98451.91;;;3.12;68.19
69955;BME280;57279;55.912;37.490;2023-02-03T12:00:09;98450.41;;;3.17;68.15
69955;BME280;57279;55.912;37.490;2023-02-03T12:03:20;98450.28;;;3.11;68.27
69955;BME280;57279;55.912;37.490;2023-02-03T12:08:34;98456.41;;;3.12;67.69
69955;BME280;57279;55.912;37.490;2023-02-03T12:19:29;98449.59;;;3.16;67.49
69955;BME280;57279;55.912;37.490;2023-02-03T12:24:57;98450.28;;;3.00;67.92
69955;BME280;57279;55.912;37.490;2023-02-03T12:27:35;98451.69;;;2.90;68.45
69955;BME280;57279;55.912;37.490;2023-02-03T12:30:16;98445.41;;;2.73;69.21
69955;BME280;57279;55.912;37.490;2023-02-03T12:32:45;98445.06;;;2.69;69.55
69955;BME280;57279;55.912;37.490;2023-02-03T12:35:20;98444.94;;;2.64;69.82
69955;BME280;57279;55.912;37.490;2023-02-03T12:38:02;98444.94;;;2.64;69.76
69955;BME280;57279;55.912;37.490;2023-02-03T12:40:43;98448.44;;;2.65;69.66
69955;BME280;57279;55.912;37.490;2023-02-03T12:46:20;98441.38;;;2.70;69.41
69955;BME280;57279;55.912;37.490;2023-02-03T12:54:10;98437.50;;;2.54;69.31
69955;BME280;57279;55.912;37.490;2023-02-03T12:56:41;98445.50;;;2.43;69.33
69955;BME280;57279;55.912;37.490;2023-02-03T12:59:18;98441.66;;;2.39;69.58
69955;BME280;57279;55.912;37.490;2023-02-03T13:01:51;98442.84;;;2.43;69.60
69955;BME280;57279;55.912;37.490;2023-02-03T13:04:43;98438.78;;;2.40;69.66
69955;BME280;57279;55.912;37.490;2023-02-03T13:10:23;98438.88;;;2.45;70.07
69955;BME280;57279;55.912;37.490;2023-02-03T13:12:50;98438.53;;;2.42;69.74
69955;BME280;57279;55.912;37.490;2023-02-03T13:15:27;98433.09;;;2.37;69.76
69955;BME280;57279;55.912;37.490;2023-02-03T13:20:40;98446.72;;;2.28;69.94
69955;BME280;57279;55.912;37.490;2023-02-03T13:23:12;98443.84;;;2.30;69.81
69955;BME280;57279;55.912;37.490;2023-02-03T13:34:10;98427.50;;;2.26;68.78
69955;BME280;57279;55.912;37.490;2023-02-03T13:42:31;98440.00;;;2.14;70.38
69955;BME280;57279;55.912;37.490;2023-02-03T13:47:30;98439.00;;;1.97;71.85
69955;BME280;57279;55.912;37.490;2023-02-03T13:50:00;98441.31;;;1.93;72.09
69955;BME280;57279;55.912;37.490;2023-02-03T13:52:32;98444.13;;;1.98;72.43
69955;BME280;57279;55.912;37.490;2023-02-03T13:54:59;98434.28;;;1.99;72.33
69955;BME280;57279;55.912;37.490;2023-02-03T13:57:34;98434.34;;;1.92;72.40
69955;BME280;57279;55.912;37.490;2023-02-03T14:00:05;98435.41;;;1.91;72.70
69955;BME280;57279;55.912;37.490;2023-02-03T14:02:44;98438.50;;;1.88;72.58
69955;BME280;57279;55.912;37.490;2023-02-03T14:05:37;98438.84;;;1.80;72.71
69955;BME280;57279;55.912;37.490;2023-02-03T14:11:37;98443.00;;;1.75;73.74
69955;BME280;57279;55.912;37.490;2023-02-03T14:16:36;98445.59;;;1.94;73.41
69955;BME280;57279;55.912;37.490;2023-02-03T14:19:02;98441.69;;;1.97;73.62
69955;BME280;57279;55.912;37.490;2023-02-03T14:21:39;98443.97;;;1.93;74.00
69955;BME280;57279;55.912;37.490;2023-02-03T14:24:09;98443.88;;;2.00;74.18
69955;BME280;57279;55.912;37.490;2023-02-03T14:26:45;98448.66;;;2.09;74.32
69955;BME280;57279;55.912;37.490;2023-02-03T14:29:28;98449.50;;;2.22;74.13
69955;BME280;57279;55.912;37.490;2023-02-03T14:32:01;98456.34;;;2.29;74.10
69955;BME280;57279;55.912;37.490;2023-02-03T14:34:48;98453.00;;;2.34;73.98
69955;BME280;57279;55.912;37.490;2023-02-03T14:37:23;98456.38;;;2.41;73.82
69955;BME280;57279;55.912;37.490;2023-02-03T14:40:15;98452.22;;;2.45;73.70
69955;BME280;57279;55.912;37.490;2023-02-03T14:53:58;98458.47;;;2.51;74.16
69955;BME280;57279;55.912;37.490;2023-02-03T14:56:42;98453.50;;;2.54;74.24
69955;BME280;57279;55.912;37.490;2023-02-03T14:59:59;98455.13;;;2.56;73.92
69955;BME280;57279;55.912;37.490;2023-02-03T15:02:24;98457.31;;;2.59;73.95
69955;BME280;57279;55.912;37.490;2023-02-03T15:10:18;98454.56;;;2.65;74.03